Latest Weather Observations for Blackwater Airport

IDQ60801

Issued at 1:32 pm EST Monday 2 May 2016 (issued every 30 minutes, with the page automatically refreshed every 10 minutes)

About weather observations | Map of weather stations | Latest weather observations for QLD | Other Formats
Station Details ID: 035134 Name: BLACKWATER AIRPORT Lat: -23.60 Lon: 148.81 Height: 192.95 m
Data from the previous 72 hours. | See also: Recent months at Blackwater Airport
Date/Time
EST
Temp
°C
App
Temp
°C
Dew
Point
Rel
Hum
%
Delta-T
°C
Wind Press
QNH
hPa
Press
MSL
hPa
Rain
since 9 am
mm
Dir
 
Spd
km/h
Gust
km/h
Spd
kts
Gust
kts
02/01:30pm 32.3 31.7 15.7 36 10.4 NNW 13 24 7 13 1014.1 1013.5 0.0
02/01:00pm 31.2 30.7 16.0 40 9.5 NNE 13 24 7 13 1014.7 1014.1 0.0
02/12:30pm 31.5 31.5 16.3 40 9.6 NE 11 19 6 10 1015.1 1014.5 0.0
02/12:00pm 29.5 29.3 17.7 49 7.5 N 15 22 8 12 1015.6 1015.0 0.0
02/11:30am 30.4 31.0 18.5 49 7.7 N 13 19 7 10 1016.3 1015.7 0.0
02/11:00am 29.8 31.4 19.2 53 6.9 NNW 9 17 5 9 1016.7 1016.1 0.0
02/10:30am 27.5 29.0 19.0 59 5.5 NNW 9 17 5 9 1017.2 1016.6 0.0
02/10:00am 27.5 28.8 19.3 61 5.3 N 11 19 6 10 1017.6 1017.0 0.0
02/09:30am 26.6 28.5 19.7 66 4.5 NNW 9 15 5 8 1017.9 1017.4 0.0
02/09:00am 25.6 27.4 19.5 69 4.0 N 9 13 5 7 1017.9 1017.4 0.0
02/08:30am 24.9 27.2 19.9 74 3.3 NNE 7 11 4 6 1017.8 1017.3 0.0
02/08:00am 23.5 26.1 19.2 77 2.8 N 4 9 2 5 1017.6 1017.0 0.0
02/07:30am 21.4 24.4 18.4 83 1.9 CALM 0 0 0 0 1017.4 1016.8 0.0
02/07:00am 19.0 21.6 17.5 91 0.9 CALM 0 0 0 0 1017.2 1016.6 0.0
02/06:30am 18.4 20.7 16.7 90 1.0 CALM 0 0 0 0 1016.9 1016.3 0.0
02/06:00am 19.0 20.3 17.0 88 1.2 SE 6 9 3 5 1016.7 1016.1 0.0
02/05:30am 19.3 20.1 17.4 89 1.2 S 9 11 5 6 1016.3 1015.7 0.0
02/05:00am 19.4 20.7 17.5 89 1.2 S 7 9 4 5 1016.1 1015.5 0.0
02/04:30am 19.7 20.7 17.8 89 1.2 SSE 9 13 5 7 1015.9 1015.3 0.0
02/04:00am 20.4 22.2 18.7 90 1.1 ENE 7 9 4 5 1015.5 1014.9 0.0
02/03:30am 20.5 22.5 18.8 90 1.1 ENE 6 7 3 4 1015.4 1014.8 0.0
02/03:00am 20.4 22.1 18.5 89 1.2 ENE 7 9 4 5 1015.4 1014.8 0.0
02/02:30am 20.4 22.1 18.5 89 1.2 ENE 7 9 4 5 1015.4 1014.8 0.0
02/02:00am 20.1 21.5 17.9 87 1.4 NE 7 9 4 5 1015.5 1014.9 0.0
02/01:30am 20.3 21.1 17.3 83 1.8 NE 9 11 5 6 1015.9 1015.3 0.0
02/01:00am 20.9 21.5 17.7 82 2.0 NE 11 13 6 7 1016.1 1015.5 0.0
02/12:30am 21.3 22.1 17.3 78 2.5 ENE 9 11 5 6 1016.5 1015.9 0.0
02/12:00am 21.8 22.4 17.6 77 2.6 ENE 11 13 6 7 1016.8 1016.2 0.0
 
Date/Time
EST
Temp
°C
App
Temp
°C
Dew
Point
Rel
Hum
%
Delta-T
°C
Wind Press
QNH
hPa
Press
MSL
hPa
Rain
since 9 am
mm
Dir
 
Spd
km/h
Gust
km/h
Spd
kts
Gust
kts
01/11:30pm 21.7 22.5 17.3 76 2.7 ENE 9 11 5 6 1016.9 1016.3 0.0
01/11:00pm 21.7 22.0 16.0 70 3.5 E 9 13 5 7 1017.1 1016.5 0.0
01/10:30pm 21.7 21.9 14.8 65 4.1 NNE 7 9 4 5 1017.0 1016.4 0.0
01/10:00pm 21.6 20.6 14.7 65 4.1 NE 13 26 7 14 1017.0 1016.4 0.0
01/09:30pm 22.4 22.8 14.8 62 4.5 S 6 7 3 4 1016.9 1016.3 0.0
01/09:00pm 23.0 23.0 15.1 61 4.7 S 9 13 5 7 1017.0 1016.4 0.0
01/08:30pm 25.1 26.8 15.1 53 6.1 CALM 0 0 0 0 1016.9 1016.3 0.0
01/08:00pm 25.4 25.9 15.1 53 6.2 NE 6 7 3 4 1016.6 1016.0 0.0
01/07:30pm 25.7 25.9 14.8 51 6.6 ENE 7 9 4 5 1016.5 1015.9 0.0
01/07:00pm 26.5 26.8 14.9 49 7.0 E 7 7 4 4 1016.2 1015.6 0.0
01/06:30pm 26.9 27.1 14.6 46 7.4 E 7 9 4 5 1015.8 1015.2 0.0
01/06:00pm 27.6 27.3 14.3 44 8.0 NE 9 9 5 5 1015.5 1014.9 0.0
01/05:30pm 29.2 29.7 15.0 42 8.7 ENE 6 9 3 5 1015.4 1014.8 0.0
01/05:00pm 29.8 30.0 14.7 39 9.3 ENE 7 11 4 6 1015.2 1014.6 0.0
01/04:30pm 30.5 31.2 14.6 38 9.8 NE 4 7 2 4 1015.0 1014.4 0.0
01/04:00pm 30.6 30.7 13.8 35 10.2 NW 6 9 3 5 1014.8 1014.2 0.0
01/03:30pm 30.8 30.7 14.0 36 10.2 WSW 7 13 4 7 1014.8 1014.2 0.0
01/03:00pm 32.3 31.8 14.9 35 10.8 NW 11 20 6 11 1014.7 1014.1 0.0
01/02:30pm 31.1 30.9 14.7 37 10.1 NW 9 13 5 7 1014.7 1014.1 0.0
01/02:00pm 30.9 31.8 16.1 41 9.3 N 6 11 3 6 1014.9 1014.3 0.0
01/01:30pm 29.4 30.0 15.9 44 8.4 N 7 11 4 6 1015.3 1014.7 0.0
01/01:00pm 31.3 31.6 16.9 42 9.2 N 11 19 6 10 1015.6 1015.0 0.0
01/12:30pm 29.2 30.4 17.4 49 7.5 NW 7 13 4 7 1016.3 1015.7 0.0
01/12:00pm 29.1 29.5 17.3 49 7.5 N 11 15 6 8 1017.0 1016.4 0.0
01/11:30am 27.7 29.4 18.1 56 6.1 ESE 6 9 3 5 1017.5 1016.9 0.0
01/11:00am 28.4 29.3 18.5 55 6.4 NNE 11 15 6 8 1018.2 1017.7 0.0
01/10:30am 27.7 28.5 19.0 59 5.6 NNE 13 24 7 13 1018.6 1018.1 0.0
01/10:00am 26.6 27.8 19.0 63 4.9 NE 11 19 6 10 1018.9 1018.4 0.0
01/09:30am 25.8 26.4 18.7 65 4.6 NE 13 20 7 11 1019.3 1018.5 0.0
01/09:00am 26.1 27.7 20.0 69 4.0 NE 11 17 6 9 1019.4 1018.6 0.0
01/08:30am 24.9 26.9 19.9 74 3.3 ENE 9 15 5 8 1019.4 1018.6 0.0
01/08:00am 23.4 24.6 19.8 80 2.3 ENE 13 17 7 9 1019.2 1018.4 0.0
01/07:30am 21.2 24.8 19.8 92 0.9 CALM 0 0 0 0 1019.2 1018.4 0.0
01/07:00am 19.8 22.2 18.8 94 0.6 NE 4 9 2 5 1018.7 1017.9 0.0
01/06:30am 19.3 20.9 18.3 94 0.6 NNE 7 9 4 5 1018.5 1017.6 0.0
01/06:00am 19.5 20.8 18.5 94 0.6 NE 9 11 5 6 1018.3 1017.4 0.0
01/05:30am 19.2 20.3 17.9 92 0.8 NNE 9 9 5 5 1018.1 1017.2 0.0
01/05:00am 19.8 21.0 18.3 91 0.9 NE 9 13 5 7 1017.8 1016.9 0.0
01/04:30am 20.3 21.3 18.6 90 1.1 ENE 11 15 6 8 1017.6 1016.7 0.0
01/04:00am 20.0 20.3 18.0 88 1.2 NE 13 17 7 9 1017.4 1016.5 0.0
01/03:30am 20.2 20.5 18.0 87 1.4 NE 13 15 7 8 1017.4 1016.5 0.0
01/03:00am 20.4 21.2 18.2 87 1.4 NE 11 15 6 8 1017.5 1016.6 0.0
01/02:30am 20.7 21.4 17.9 84 1.7 ENE 11 15 6 8 1017.7 1016.8 0.0
01/02:00am 21.0 21.5 18.4 85 1.6 ENE 13 15 7 8 1017.8 1016.9 0.0
01/01:30am 20.7 21.2 18.3 86 1.5 ENE 13 15 7 8 1017.9 1017.0 0.0
01/01:00am 20.0 20.5 17.4 85 1.6 NE 11 13 6 7 1018.0 1017.1 0.0
01/12:30am 20.2 21.0 17.4 84 1.7 NE 9 13 5 7 1018.0 1017.1 0.0
01/12:00am 20.6 21.4 17.2 81 2.1 NE 9 11 5 6 1018.2 1017.3 0.0
 
Date/Time
EST
Temp
°C
App
Temp
°C
Dew
Point
Rel
Hum
%
Delta-T
°C
Wind Press
QNH
hPa
Press
MSL
hPa
Rain
since 9 am
mm
Dir
 
Spd
km/h
Gust
km/h
Spd
kts
Gust
kts
30/11:30pm 21.7 22.8 17.9 79 2.4 NE 9 11 5 6 1018.4 1017.5 0.0
30/11:00pm 21.7 22.7 17.7 78 2.5 NE 9 13 5 7 1018.5 1017.6 0.0
30/10:30pm 22.5 23.3 18.1 76 2.8 NE 11 13 6 7 1018.4 1017.5 0.0
30/10:00pm 23.6 23.8 18.5 73 3.2 ENE 15 20 8 11 1018.4 1017.5 0.0
30/09:30pm 23.6 23.4 17.6 69 3.8 ENE 15 20 8 11 1018.3 1017.4 0.0
30/09:00pm 24.3 23.9 17.1 64 4.5 ENE 15 19 8 10 1018.2 1017.3 0.0
30/08:30pm 25.0 23.8 16.2 58 5.4 ENE 17 20 9 11 1017.9 1017.0 0.0
30/08:00pm 25.0 24.3 15.3 55 5.9 E 13 17 7 9 1017.5 1016.6 0.0
30/07:30pm 25.2 25.2 15.2 54 6.1 ESE 9 9 5 5 1017.1 1016.2 0.0
30/07:00pm 25.6 26.0 15.3 53 6.3 ESE 7 9 4 5 1016.8 1015.9 0.0
30/06:30pm 26.0 26.3 15.1 51 6.6 E 7 9 4 5 1016.4 1015.5 0.0
30/06:00pm 26.8 26.8 15.2 49 7.1 ENE 9 11 5 6 1016.2 1015.3 0.0
30/05:30pm 28.3 28.6 14.9 44 8.2 NE 7 9 4 5 1016.2 1015.3 0.0
30/05:00pm 29.8 29.4 15.1 40 9.1 NE 11 17 6 9 1016.0 1015.1 0.0
30/04:30pm 29.9 28.8 15.2 41 9.1 ENE 15 20 8 11 1015.6 1014.7 0.0
30/04:00pm 30.1 29.6 15.0 40 9.3 NNE 11 19 6 10 1015.5 1014.6 0.0
30/03:30pm 30.2 28.5 14.7 39 9.5 NE 17 22 9 12 1015.8 1014.9 0.0
30/03:00pm 31.2 29.6 16.0 40 9.5 E 19 28 10 15 1015.7 1014.8 0.0
30/02:30pm 30.9 29.9 15.7 39 9.5 NE 15 26 8 14 1015.8 1014.9 0.0
30/02:00pm 31.0 30.6 16.2 41 9.3 NE 13 22 7 12 1016.0 1015.1 0.0
30/01:30pm 30.5 29.8 16.5 43 8.8 ENE 15 24 8 13 1016.4 1015.5 0.0
30/01:00pm 30.4 29.9 16.8 44 8.6 NE 15 28 8 15 1016.9 1016.0 0.0
30/12:30pm 29.7 29.7 17.2 47 8.0 ENE 13 24 7 13 1017.6 1016.7 0.0
30/12:00pm 28.4 28.7 17.0 50 7.2 NE 11 20 6 11 1018.3 1017.4 0.0
30/11:30am 28.0 28.0 17.2 52 6.8 ENE 13 20 7 11 1018.8 1018.0 0.0
30/11:00am 27.2 27.5 17.9 56 5.9 ENE 13 20 7 11 1019.7 1018.8 0.0
30/10:30am 27.7 27.8 18.4 57 6.0 NE 15 22 8 12 1020.1 1019.2 0.0
30/10:00am 26.0 25.7 17.4 59 5.4 ENE 15 24 8 13 1020.3 1019.4 0.0
30/09:30am 25.3 24.8 17.7 62 4.8 ENE 17 24 9 13 1020.4 1019.5 0.0
30/09:00am 25.4 24.9 18.6 66 4.3 ENE 19 28 10 15 1020.2 1019.3 0.0
30/08:30am 24.7 24.5 18.4 68 4.0 ENE 17 24 9 13 1020.2 1019.3 0.0
30/08:00am 24.1 23.9 18.5 71 3.6 ENE 17 24 9 13 1020.1 1019.2 0.0
30/07:30am 22.9 24.1 18.2 75 3.0 NE 9 15 5 8 1020.2 1019.3 0.0
30/07:00am 21.4 22.6 18.2 82 2.0 ENE 9 15 5 8 1020.0 1019.1 0.0
30/06:30am 20.6 20.9 17.8 84 1.7 ENE 13 15 7 8 1019.4 1018.6 0.0
30/06:00am 20.9 21.5 17.7 82 2.0 ENE 11 13 6 7 1019.3 1018.5 0.0
30/05:30am 21.6 21.6 18.0 80 2.3 E 15 20 8 11 1018.9 1018.1 0.0
30/05:00am 21.8 22.4 18.6 82 2.0 ENE 13 20 7 11 1018.8 1018.0 0.0
30/04:30am 21.4 22.2 18.2 82 2.0 NE 11 15 6 8 1018.7 1017.9 0.0
30/04:00am 22.0 22.2 18.6 81 2.1 ENE 15 22 8 12 1018.7 1017.9 0.0
30/03:30am 22.0 22.6 18.6 81 2.2 ENE 13 20 7 11 1018.8 1018.0 0.0
30/03:00am 22.2 22.4 18.6 80 2.3 ENE 15 20 8 11 1018.8 1018.0 0.0
30/02:30am 22.3 22.6 18.7 80 2.3 ENE 15 24 8 13 1018.8 1018.0 0.0
30/02:00am 22.5 22.8 18.7 79 2.4 ENE 15 20 8 11 1019.1 1018.3 0.0
30/01:30am 22.3 22.6 18.7 80 2.3 ENE 15 20 8 11 1019.6 1018.7 0.0
30/01:00am 22.3 22.2 18.7 80 2.3 ENE 17 22 9 12 1019.7 1018.8 0.0
30/12:30am 22.4 22.2 18.6 79 2.4 ENE 17 26 9 14 1019.7 1018.8 0.0
30/12:00am 22.5 22.8 18.7 79 2.4 ENE 15 20 8 11 1020.3 1019.4 0.0
 
Date/Time
EST
Temp
°C
App
Temp
°C
Dew
Point
Rel
Hum
%
Delta-T
°C
Wind Press
QNH
hPa
Press
MSL
hPa
Rain
since 9 am
mm
Dir
 
Spd
km/h
Gust
km/h
Spd
kts
Gust
kts
29/11:30pm 22.1 23.5 18.7 81 2.2 ENE 9 13 5 7 1020.5 1019.6 0.0
29/11:00pm 22.0 22.6 18.6 81 2.1 ENE 13 17 7 9 1020.6 1019.7 0.0
29/10:30pm 22.0 23.0 18.6 81 2.2 E 11 15 6 8 1020.6 1019.7 0.0
29/10:00pm 22.6 22.5 18.8 79 2.4 E 17 24 9 13 1020.5 1019.6 0.0
29/09:30pm 23.0 22.8 18.5 76 2.9 ENE 17 24 9 13 1020.3 1019.4 0.0
29/09:00pm 23.4 22.6 18.5 74 3.1 ENE 20 30 11 16 1020.0 1019.1 0.0
29/08:30pm 23.8 23.0 18.4 72 3.4 ENE 20 28 11 15 1019.7 1018.8 0.0
29/08:00pm 24.1 23.4 18.3 70 3.7 E 19 26 10 14 1019.4 1018.6 0.0
29/07:30pm 25.1 24.2 18.3 66 4.3 ENE 20 28 11 15 1018.9 1018.1 0.0
29/07:00pm 25.4 24.8 17.6 62 4.9 ENE 17 20 9 11 1018.3 1017.4 0.0
29/06:30pm 26.2 25.5 17.3 58 5.6 ENE 17 24 9 13 1017.9 1017.0 0.0
29/06:00pm 26.6 25.6 16.5 54 6.3 ENE 17 20 9 11 1017.5 1016.6 0.0
29/05:30pm 27.5 26.8 16.5 51 6.9 ENE 15 22 8 12 1017.3 1016.4 0.0
29/05:00pm 28.8 27.8 16.7 48 7.6 NE 17 24 9 13 1017.2 1016.3 0.0
29/04:30pm 29.2 28.2 16.7 46 7.9 ENE 17 26 9 14 1016.7 1015.8 0.0
29/04:00pm 28.5 28.6 16.4 48 7.6 E 11 17 6 9 1016.6 1015.7 0.0
29/03:30pm 29.4 29.0 16.2 44 8.3 E 13 24 7 13 1016.5 1015.6 0.0
29/03:00pm 30.4 30.4 17.1 44 8.5 NE 13 30 7 16 1016.5 1015.6 0.0
29/02:30pm 28.7 28.6 16.9 48 7.4 NE 13 24 7 13 1016.8 1015.9 0.0
29/02:00pm 28.0 27.2 17.2 52 6.8 ENE 17 24 9 13 1017.2 1016.3 0.0

Other Formats:

Comma delimited format used in spreadsheet applications
http://www.bom.gov.au/fwo/IDQ60801/IDQ60801.94398.axf

JavaScript Object Notation format (JSON) in row-major order
http://www.bom.gov.au/fwo/IDQ60801/IDQ60801.94398.json